Time;durP1;ratioP1;P1;durP2;ratioP2;P2;SDS_P1;SDS_P2;PMS_P1;PMS_P2;Temp;Humidity;BMP_temperature;BMP_pressure;BME280_temperature;BME280_humidity;BME280_pressure;Samples;Min_cycle;Max_cycle;Signal;HPM_P1;HPM_P2
2023/05/23 00:00:10;;;;;;;7.53;3.45;;;;;;;17.25;47.54;100290.38;1677009;84;21063;-73
2023/05/23 00:02:43;;;;;;;5.78;3.47;;;;;;;17.21;47.81;100283.64;1731544;82;21071;-72
2023/05/23 00:05:14;;;;;;;4.65;3.20;;;;;;;17.19;47.84;100280.81;1696043;83;21444;-72
2023/05/23 00:07:44;;;;;;;16.87;3.70;;;;;;;17.16;47.86;100277.16;1731702;83;21098;-72
2023/05/23 00:10:13;;;;;;;5.55;3.27;;;;;;;17.17;47.90;100278.30;1731635;83;21091;-71
2023/05/23 00:12:43;;;;;;;6.42;3.60;;;;;;;17.16;47.90;100270.23;1696303;84;21012;-72
2023/05/23 00:15:12;;;;;;;5.47;3.50;;;;;;;17.15;48.05;100265.78;1742524;82;21097;-74
2023/05/23 00:17:41;;;;;;;4.75;3.30;;;;;;;17.15;48.09;100269.39;1709376;84;21071;-73
2023/05/23 00:20:12;;;;;;;7.00;3.47;;;;;;;17.17;47.93;100271.37;1744596;82;21035;-70
2023/05/23 00:22:49;;;;;;;6.83;3.52;;;;;;;17.17;47.93;100256.14;1709040;82;21040;-72
2023/05/23 00:25:20;;;;;;;5.03;3.08;;;;;;;17.16;47.99;100263.31;1745495;81;21074;-72
2023/05/23 00:27:56;;;;;;;10.45;3.37;;;;;;;17.14;48.01;100261.33;1709288;82;21487;-69
2023/05/23 00:30:25;;;;;;;6.47;3.17;;;;;;;17.14;47.92;100263.55;1744940;82;21134;-71
2023/05/23 00:32:54;;;;;;;5.65;3.10;;;;;;;17.14;47.97;100258.02;1745185;81;21417;-71
2023/05/23 00:35:23;;;;;;;5.50;3.10;;;;;;;17.13;47.99;100253.56;1708852;83;21504;-71
2023/05/23 00:37:53;;;;;;;4.85;3.17;;;;;;;17.13;48.04;100258.26;1745235;82;21094;-72
2023/05/23 00:40:22;;;;;;;4.45;3.17;;;;;;;17.10;48.04;100250.73;1709292;84;21079;-73
2023/05/23 00:42:52;;;;;;;3.67;2.67;;;;;;;17.08;48.11;100249.30;1689280;84;21022;-73
2023/05/23 00:45:22;;;;;;;4.42;2.87;;;;;;;17.07;48.19;100254.54;1689322;85;21062;-72
2023/05/23 00:47:51;;;;;;;4.83;2.90;;;;;;;17.07;48.19;100254.00;1744545;82;21514;-72
2023/05/23 00:50:22;;;;;;;3.33;2.72;;;;;;;17.06;48.23;100255.08;1744749;82;21046;-70
2023/05/23 00:52:50;;;;;;;6.65;3.20;;;;;;;17.04;48.31;100246.72;1708922;82;21020;-72
2023/05/23 00:55:19;;;;;;;4.72;2.98;;;;;;;17.02;48.39;100240.05;1744694;82;21042;-71
2023/05/23 00:57:48;;;;;;;5.28;2.95;;;;;;;17.00;48.48;100242.22;1745049;82;21034;-72
2023/05/23 01:00:19;;;;;;;3.98;2.60;;;;;;;17.00;48.62;100241.38;1709518;84;21075;-72
2023/05/23 01:02:52;;;;;;;6.28;2.83;;;;;;;16.99;48.65;100235.54;1689482;84;21070;-73
2023/05/23 01:05:23;;;;;;;4.22;2.90;;;;;;;16.97;48.68;100231.63;1745234;81;21034;-72
2023/05/23 01:07:54;;;;;;;4.97;2.80;;;;;;;16.95;48.76;100231.03;1745332;82;21486;-71
2023/05/23 01:10:26;;;;;;;3.45;2.85;;;;;;;16.90;48.95;100230.05;1681349;84;21055;-73
2023/05/23 01:13:30;;;;;;;4.22;2.62;;;;;;;16.87;48.93;100230.53;1744884;82;21074;-72
2023/05/23 01:16:07;;;;;;;5.50;2.50;;;;;;;16.85;48.94;100234.09;1709650;82;21023;-72
2023/05/23 01:18:58;;;;;;;4.42;3.00;;;;;;;16.79;49.16;100238.67;1746115;82;21066;-74
2023/05/23 01:21:28;;;;;;;5.28;2.92;;;;;;;16.71;49.28;100236.27;1709570;82;21067;-71
2023/05/23 01:24:36;;;;;;;5.47;3.62;;;;;;;16.67;49.37;100234.53;1745325;81;21478;-71
2023/05/23 01:27:47;;;;;;;4.58;3.45;;;;;;;16.64;49.30;100240.52;1717670;82;21030;-72
2023/05/23 01:30:19;;;;;;;4.70;3.27;;;;;;;16.66;49.21;100239.77;1745128;82;21058;-72
2023/05/23 01:32:51;;;;;;;5.75;3.15;;;;;;;16.67;49.21;100234.53;1745232;81;21090;-72
2023/05/23 01:35:26;;;;;;;5.08;3.40;;;;;;;16.67;49.22;100235.08;1745203;82;21479;-72
2023/05/23 01:37:55;;;;;;;4.80;3.17;;;;;;;16.63;49.29;100229.69;1709725;84;21079;-71
2023/05/23 01:40:24;;;;;;;4.90;3.20;;;;;;;16.61;49.47;100229.94;1745585;82;21455;-72
2023/05/23 01:42:56;;;;;;;5.55;3.00;;;;;;;16.64;49.56;100236.91;1709482;84;21031;-71
2023/05/23 01:45:26;;;;;;;5.30;3.33;;;;;;;16.62;49.63;100228.85;1745210;81;21098;-72
2023/05/23 01:47:55;;;;;;;3.77;3.00;;;;;;;16.59;49.66;100232.10;1709453;82;21007;-72
2023/05/23 01:50:25;;;;;;;4.53;3.08;;;;;;;16.55;49.81;100236.43;1745519;82;21471;-72
2023/05/23 01:52:55;;;;;;;6.42;3.30;;;;;;;16.55;50.06;100237.81;1709379;83;21109;-72
2023/05/23 01:55:25;;;;;;;4.80;3.08;;;;;;;16.51;50.12;100232.46;1745636;82;21082;-72
2023/05/23 01:57:55;;;;;;;5.47;3.05;;;;;;;16.51;50.20;100226.93;1709497;82;21040;-71
2023/05/23 02:00:24;;;;;;;6.33;3.22;;;;;;;16.49;50.25;100227.72;1689458;84;21031;-72
2023/05/23 02:02:53;;;;;;;4.75;2.92;;;;;;;16.48;50.35;100230.18;1744977;82;21114;-73
2023/05/23 02:05:22;;;;;;;5.78;3.40;;;;;;;16.46;50.30;100233.72;1709661;84;21028;-71
2023/05/23 02:07:52;;;;;;;5.33;3.25;;;;;;;16.45;50.31;100232.89;1745298;81;21102;-71
2023/05/23 02:10:22;;;;;;;4.53;2.75;;;;;;;16.45;50.34;100232.05;1709565;82;21048;-72
2023/05/23 02:12:51;;;;;;;6.53;3.42;;;;;;;16.45;50.38;100232.05;1689624;84;21556;-72
2023/05/23 02:15:20;;;;;;;7.20;3.10;;;;;;;16.44;50.43;100227.59;1698326;83;21099;-72
2023/05/23 02:17:50;;;;;;;5.65;3.30;;;;;;;16.40;50.56;100224.47;1691941;83;21056;-73
2023/05/23 02:20:21;;;;;;;6.55;3.00;;;;;;;16.37;50.70;100222.72;1691994;83;21029;-73
2023/05/23 02:22:49;;;;;;;7.25;3.27;;;;;;;16.35;50.79;100217.97;1726628;83;21024;-72
2023/05/23 02:25:18;;;;;;;24.10;5.35;;;;;;;16.35;50.89;100217.97;1726605;82;21047;-71
2023/05/23 02:27:47;;;;;;;8.90;3.87;;;;;;;16.32;51.04;100212.92;1726680;82;21071;-72
2023/05/23 02:30:17;;;;;;;7.92;3.33;;;;;;;16.28;51.14;100207.58;1726565;82;21052;-73
2023/05/23 02:32:46;;;;;;;7.90;3.20;;;;;;;16.25;51.25;100214.94;1726807;82;21433;-72
2023/05/23 02:35:15;;;;;;;6.12;3.37;;;;;;;16.22;51.42;100211.27;1727335;82;21009;-72
2023/05/23 02:37:44;;;;;;;7.05;3.20;;;;;;;16.17;51.54;100211.44;1727113;82;21040;-72
2023/05/23 02:40:13;;;;;;;6.45;3.60;;;;;;;16.14;51.72;100206.93;1726908;82;21017;-72
2023/05/23 02:42:42;;;;;;;8.23;3.12;;;;;;;16.12;51.86;100207.17;1726864;82;21028;-71
2023/05/23 02:45:11;;;;;;;5.87;3.00;;;;;;;16.05;51.99;100202.30;1726670;82;21099;-72
2023/05/23 02:47:40;;;;;;;6.45;2.98;;;;;;;16.02;52.30;100204.16;1726975;82;21063;-72
2023/05/23 02:50:10;;;;;;;5.28;2.92;;;;;;;15.96;52.66;100202.34;1726670;82;21440;-72
2023/05/23 02:52:41;;;;;;;14.75;4.35;;;;;;;15.92;52.81;100209.97;1727159;82;21055;-72
2023/05/23 02:55:09;;;;;;;6.12;2.90;;;;;;;15.88;53.03;100208.76;1727252;83;21020;-72
2023/05/23 02:57:40;;;;;;;4.42;3.00;;;;;;;15.87;53.28;100207.91;1706760;82;21024;-72
2023/05/23 03:00:10;;;;;;;4.55;2.90;;;;;;;15.85;53.34;100207.31;1726930;83;21509;-72
2023/05/23 03:02:41;;;;;;;6.00;3.02;;;;;;;15.85;53.40;100204.55;1706693;83;21055;-72
2023/05/23 03:05:10;;;;;;;6.95;3.17;;;;;;;15.85;53.46;100204.01;1727017;83;21019;-72
2023/05/23 03:07:39;;;;;;;5.80;3.08;;;;;;;15.87;53.55;100209.84;1726921;83;20996;-71
2023/05/23 03:10:09;;;;;;;6.17;3.40;;;;;;;15.87;53.63;100205.15;1727047;83;21012;-72
2023/05/23 03:12:39;;;;;;;5.92;3.00;;;;;;;15.88;53.71;100201.31;1727098;83;21028;-72
2023/05/23 03:15:10;;;;;;;5.05;2.40;;;;;;;15.89;53.73;100196.09;1729079;82;21023;-73
2023/05/23 03:17:42;;;;;;;3.65;2.15;;;;;;;15.95;53.37;100200.66;1696615;84;21056;-72
2023/05/23 03:20:11;;;;;;;10.28;2.90;;;;;;;16.00;53.16;100200.79;1686153;85;21019;-73
2023/05/23 03:22:42;;;;;;;5.95;2.85;;;;;;;16.05;53.14;100206.98;1696219;84;21075;-73
2023/05/23 03:25:10;;;;;;;8.40;2.85;;;;;;;16.06;53.03;100208.66;1686269;85;21051;-71
2023/05/23 03:27:40;;;;;;;3.95;2.52;;;;;;;16.06;53.01;100206.74;1696699;83;21424;-72
2023/05/23 03:30:11;;;;;;;7.45;2.80;;;;;;;16.08;53.18;100210.66;1686286;85;21549;-73
2023/05/23 03:32:39;;;;;;;6.75;2.75;;;;;;;16.11;53.23;100203.27;1696388;84;21056;-73
2023/05/23 03:35:10;;;;;;;5.20;2.33;;;;;;;16.15;52.95;100209.45;1686384;85;21011;-73
2023/05/23 03:37:40;;;;;;;6.40;2.80;;;;;;;16.20;52.80;100207.90;1696420;84;21526;-71
2023/05/23 03:40:10;;;;;;;8.18;2.85;;;;;;;16.21;52.89;100209.04;1686476;85;21007;-73
2023/05/23 03:42:39;;;;;;;5.80;3.08;;;;;;;16.27;52.73;100208.66;1696660;84;21064;-72
2023/05/23 03:45:10;;;;;;;4.55;2.70;;;;;;;16.32;52.68;100211.55;1686286;85;21022;-73
2023/05/23 03:47:39;;;;;;;6.85;2.50;;;;;;;16.36;52.43;100209.98;1676481;83;21048;-72
2023/05/23 03:50:09;;;;;;;5.60;2.50;;;;;;;16.41;52.31;100212.87;1686419;85;21604;-72
2023/05/23 03:52:39;;;;;;;3.92;2.60;;;;;;;16.44;52.54;100206.31;1696249;83;21464;-72
2023/05/23 03:55:10;;;;;;;6.33;2.90;;;;;;;16.50;52.41;100203.13;1657939;85;21039;-72
2023/05/23 03:57:39;;;;;;;12.47;3.45;;;;;;;16.53;52.43;100210.94;1696443;84;21040;-72
2023/05/23 04:00:13;;;;;;;8.00;2.98;;;;;;;16.57;52.62;100206.61;1662659;86;21522;-73
2023/05/23 04:02:45;;;;;;;11.05;2.85;;;;;;;16.59;52.53;100208.59;1696481;84;21052;-72
2023/05/23 04:05:16;;;;;;;6.85;2.77;;;;;;;16.64;52.46;100201.79;1686242;84;21102;-71
2023/05/23 04:07:45;;;;;;;7.17;3.00;;;;;;;16.65;52.32;100210.41;1696409;84;21063;-73
2023/05/23 04:10:15;;;;;;;6.75;2.87;;;;;;;16.71;52.11;100212.21;1686235;85;21474;-72
2023/05/23 04:12:44;;;;;;;5.33;2.90;;;;;;;16.74;52.46;100211.73;1696552;83;21020;-71
2023/05/23 04:15:16;;;;;;;6.25;3.30;;;;;;;16.80;52.35;100216.29;1683084;85;21132;-73
2023/05/23 04:17:47;;;;;;;5.83;2.83;;;;;;;16.86;52.23;100211.70;1675898;84;21456;-73
2023/05/23 04:20:18;;;;;;;5.40;3.37;;;;;;;16.92;52.11;100209.38;1676199;85;21023;-72
2023/05/23 04:22:47;;;;;;;5.55;3.12;;;;;;;16.95;52.05;100203.90;1676648;84;21071;-72
2023/05/23 04:25:17;;;;;;;5.28;2.95;;;;;;;17.02;51.94;100211.52;1676213;85;21086;-74
2023/05/23 04:27:48;;;;;;;4.85;3.27;;;;;;;17.05;51.95;100205.50;1675852;85;21545;-72
2023/05/23 04:30:18;;;;;;;6.70;3.25;;;;;;;17.10;51.78;100202.84;1645660;86;21116;-72
2023/05/23 04:32:48;;;;;;;9.50;3.47;;;;;;;17.15;51.75;100206.25;1676356;85;21104;-72
2023/05/23 04:35:17;;;;;;;7.35;4.60;;;;;;;17.20;51.52;100209.97;1645724;87;21128;-73
2023/05/23 04:37:46;;;;;;;7.40;3.20;;;;;;;17.25;51.58;100211.45;1676110;84;21030;-73
2023/05/23 04:40:15;;;;;;;9.30;3.55;;;;;;;17.32;51.53;100209.38;1676510;85;21023;-73
2023/05/23 04:42:50;;;;;;;5.83;3.45;;;;;;;17.40;51.33;100218.67;1643864;87;21045;-73
2023/05/23 04:45:30;;;;;;;5.87;3.17;;;;;;;17.49;51.15;100214.13;1675139;84;21024;-71
2023/05/23 04:48:01;;;;;;;4.72;3.30;;;;;;;17.56;51.11;100207.92;1671297;84;21073;-72
2023/05/23 04:50:39;;;;;;;7.10;3.50;;;;;;;17.63;51.16;100208.61;1645392;86;21037;-73
2023/05/23 04:53:10;;;;;;;11.88;3.83;;;;;;;17.70;50.95;100209.33;1676207;84;21062;-72
2023/05/23 04:55:40;;;;;;;7.60;3.60;;;;;;;17.76;50.88;100210.26;1676293;85;21000;-71
2023/05/23 04:58:11;;;;;;;9.65;3.37;;;;;;;17.83;50.86;100213.71;1675468;85;21039;-73
2023/05/23 05:00:40;;;;;;;7.97;3.67;;;;;;;17.89;50.83;100209.39;1625410;87;21105;-71
2023/05/23 05:03:10;;;;;;;8.95;3.60;;;;;;;18.01;50.81;100204.61;1634132;86;21087;-73
2023/05/23 05:05:41;;;;;;;9.90;5.37;;;;;;;18.15;50.85;100211.22;1645106;87;21595;-73
2023/05/23 05:08:13;;;;;;;7.53;3.80;;;;;;;18.29;50.48;100212.58;1676298;84;21115;-71
2023/05/23 05:10:41;;;;;;;8.38;4.15;;;;;;;18.40;50.05;100214.42;1676463;84;21451;-72
2023/05/23 05:13:11;;;;;;;7.37;4.10;;;;;;;18.48;49.87;100212.61;1676200;85;21489;-73
2023/05/23 05:15:44;;;;;;;6.65;3.83;;;;;;;18.60;49.60;100214.73;1702393;82;21086;-72
2023/05/23 05:18:15;;;;;;;9.90;4.10;;;;;;;18.73;49.35;100218.27;1744850;81;21533;-73
2023/05/23 05:20:44;;;;;;;6.50;3.60;;;;;;;18.79;49.18;100213.08;1744872;81;21039;-73
2023/05/23 05:23:13;;;;;;;11.08;4.10;;;;;;;18.84;49.34;100213.16;1713939;82;21530;-73
2023/05/23 05:25:42;;;;;;;8.65;4.12;;;;;;;18.92;49.50;100214.13;1744774;82;21007;-73
2023/05/23 05:28:12;;;;;;;8.93;4.42;;;;;;;19.03;49.35;100213.71;1709369;82;21004;-72
2023/05/23 05:30:45;;;;;;;10.63;4.05;;;;;;;19.27;49.12;100209.56;1745006;80;21431;-72
2023/05/23 05:33:13;;;;;;;19.05;5.65;;;;;;;19.52;48.68;100202.10;1744785;82;21051;-71
2023/05/23 05:35:43;;;;;;;12.73;3.95;;;;;;;19.82;48.37;100215.51;1744893;82;21087;-71
2023/05/23 05:38:14;;;;;;;8.60;4.10;;;;;;;20.11;47.61;100210.48;1709509;82;21047;-71
2023/05/23 05:40:43;;;;;;;9.30;3.80;;;;;;;20.27;47.18;100212.32;1745066;82;21119;-70
2023/05/23 05:43:12;;;;;;;7.37;3.90;;;;;;;20.34;46.93;100217.66;1709129;82;21448;-73
2023/05/23 05:45:42;;;;;;;9.30;4.67;;;;;;;20.40;46.67;100209.11;1745059;81;21074;-71
2023/05/23 05:48:11;;;;;;;5.90;3.70;;;;;;;20.42;46.50;100215.25;1709427;84;21056;-71
2023/05/23 05:50:43;;;;;;;6.87;4.20;;;;;;;20.43;46.30;100213.30;1714250;82;21047;-72
2023/05/23 05:53:12;;;;;;;9.53;4.45;;;;;;;20.44;46.48;100208.86;1709601;84;21020;-74
2023/05/23 05:55:41;;;;;;;6.78;4.03;;;;;;;20.53;46.14;100214.77;1689609;84;21078;-72
2023/05/23 05:58:13;;;;;;;7.97;4.00;;;;;;;20.58;45.93;100209.23;1744773;82;21476;-71
2023/05/23 06:00:44;;;;;;;8.95;3.90;;;;;;;20.58;45.46;100211.47;1706281;82;21071;-70
2023/05/23 06:03:14;;;;;;;13.18;4.42;;;;;;;20.57;45.62;100211.73;1745178;82;21035;-70
2023/05/23 06:05:48;;;;;;;8.98;4.30;;;;;;;20.62;45.56;100213.71;1744244;81;21501;-72
2023/05/23 06:08:17;;;;;;;11.20;4.60;;;;;;;20.66;45.46;100212.06;1744912;82;21081;-71
2023/05/23 06:10:48;;;;;;;8.75;3.80;;;;;;;20.80;45.59;100204.91;1709326;82;21098;-72
2023/05/23 06:13:17;;;;;;;9.95;4.45;;;;;;;21.09;45.09;100202.58;1745172;82;21010;-71
2023/05/23 06:15:48;;;;;;;6.30;4.35;;;;;;;21.38;44.25;100203.84;1709227;83;21547;-71
2023/05/23 06:18:19;;;;;;;6.45;3.65;;;;;;;21.64;43.95;100207.56;1745308;81;21082;-72
2023/05/23 06:20:49;;;;;;;10.58;3.90;;;;;;;21.97;43.28;100199.23;1744905;82;21140;-72
2023/05/23 06:23:18;;;;;;;5.80;3.75;;;;;;;22.25;42.77;100197.91;1744939;82;21481;-72
2023/05/23 06:25:48;;;;;;;7.33;3.62;;;;;;;22.56;42.25;100202.06;1681171;84;21549;-70
2023/05/23 06:28:16;;;;;;;14.65;4.17;;;;;;;22.78;41.88;100196.45;1745172;82;21109;-71
2023/05/23 06:30:49;;;;;;;7.42;3.70;;;;;;;22.91;41.25;100186.67;1744873;82;21067;-70
2023/05/23 06:33:19;;;;;;;4.70;3.20;;;;;;;22.95;41.06;100189.17;1709451;82;21059;-71
2023/05/23 06:35:49;;;;;;;4.65;3.20;;;;;;;23.10;40.89;100188.27;1745994;81;21510;-72
2023/05/23 06:38:19;;;;;;;6.97;4.75;;;;;;;23.29;40.31;100182.87;1745177;82;21074;-71
2023/05/23 06:40:47;;;;;;;10.28;3.90;;;;;;;23.22;40.02;100187.38;1709342;82;21047;-72
2023/05/23 06:43:17;;;;;;;10.10;3.47;;;;;;;23.21;40.42;100191.86;1689610;84;20999;-70
2023/05/23 06:45:47;;;;;;;6.78;3.30;;;;;;;23.27;40.27;100180.37;1744217;81;21561;-71
2023/05/23 06:48:17;;;;;;;10.75;3.98;;;;;;;23.23;40.04;100173.68;1709332;84;21020;-71
2023/05/23 06:50:47;;;;;;;9.13;3.27;;;;;;;23.08;40.08;100183.53;1745050;82;21051;-69
2023/05/23 06:53:17;;;;;;;7.33;3.20;;;;;;;22.89;40.59;100176.91;1709399;83;21488;-70
2023/05/23 06:55:48;;;;;;;3.67;2.52;;;;;;;22.77;40.84;100174.39;1744981;82;21086;-70
2023/05/23 06:58:21;;;;;;;4.67;2.90;;;;;;;22.69;40.99;100177.17;1682229;84;21043;-71
2023/05/23 07:00:49;;;;;;;7.90;2.98;;;;;;;22.65;41.22;100168.25;1744706;81;21039;-71
2023/05/23 07:03:20;;;;;;;4.62;2.98;;;;;;;22.62;41.54;100168.81;1705798;84;21440;-70
2023/05/23 07:05:50;;;;;;;6.62;2.72;;;;;;;22.70;41.65;100169.63;1745439;81;21066;-72
2023/05/23 07:08:20;;;;;;;9.33;3.00;;;;;;;22.90;41.61;100174.38;1745119;82;21062;-71
2023/05/23 07:10:53;;;;;;;4.50;2.70;;;;;;;23.29;40.68;100164.70;1707866;82;21079;-72
2023/05/23 07:13:36;;;;;;;5.40;3.20;;;;;;;23.69;40.07;100170.67;1744616;81;21011;-71
2023/05/23 07:16:06;;;;;;;4.60;3.22;;;;;;;24.16;39.46;100159.42;1742840;80;21455;-70
2023/05/23 07:18:37;;;;;;;9.03;3.30;;;;;;;24.51;38.89;100163.31;1699468;83;21076;-72
2023/05/23 07:21:07;;;;;;;5.95;2.85;;;;;;;24.85;38.39;100157.64;1734930;82;21051;-72
2023/05/23 07:23:37;;;;;;;10.98;2.90;;;;;;;25.08;37.48;100162.16;1699530;84;21012;-73
2023/05/23 07:26:08;;;;;;;5.42;3.08;;;;;;;25.17;37.48;100161.75;1699227;83;21021;-71
2023/05/23 07:28:44;;;;;;;4.92;2.83;;;;;;;25.40;37.06;100162.87;1734157;82;21027;-71
2023/05/23 07:31:14;;;;;;;11.65;3.20;;;;;;;25.65;36.99;100165.88;1699719;83;21738;-70
2023/05/23 07:33:43;;;;;;;8.28;3.33;;;;;;;25.95;36.58;100164.59;1734741;82;21055;-71
2023/05/23 07:36:13;;;;;;;6.25;3.25;;;;;;;26.15;36.35;100158.10;1699471;83;21032;-72
2023/05/23 07:38:42;;;;;;;7.47;3.55;;;;;;;26.26;35.66;100150.33;1734661;81;21031;-73
2023/05/23 07:41:11;;;;;;;7.42;3.20;;;;;;;26.21;35.68;100148.45;1699660;83;21043;-72
2023/05/23 07:43:41;;;;;;;4.35;2.83;;;;;;;26.13;36.17;100153.94;1734752;83;21059;-73
2023/05/23 07:46:10;;;;;;;7.30;3.33;;;;;;;26.10;35.94;100144.15;1699457;83;21456;-72
2023/05/23 07:48:40;;;;;;;9.83;3.08;;;;;;;26.01;36.29;100149.34;1734659;82;21047;-71
2023/05/23 07:51:08;;;;;;;8.15;2.98;;;;;;;25.82;36.45;100147.97;1734706;83;21517;-72
2023/05/23 07:53:38;;;;;;;7.72;3.37;;;;;;;25.79;36.34;100145.20;1665040;84;21531;-73
2023/05/23 07:56:13;;;;;;;5.12;3.10;;;;;;;25.85;36.45;100140.33;1655540;84;21036;-72
2023/05/23 07:58:43;;;;;;;6.42;3.35;;;;;;;25.85;36.07;100136.95;1703725;83;21067;-72
2023/05/23 08:01:11;;;;;;;6.15;2.90;;;;;;;25.84;36.40;100129.67;1715489;82;21476;-74
2023/05/23 08:03:46;;;;;;;5.15;2.90;;;;;;;25.93;35.89;100142.45;1723033;83;21616;-74
2023/05/23 08:06:17;;;;;;;7.37;3.17;;;;;;;25.97;35.73;100131.44;1734107;82;21672;-74
2023/05/23 08:08:48;;;;;;;9.45;4.10;;;;;;;26.00;35.80;100135.03;1734651;83;21059;-74
2023/05/23 08:11:16;;;;;;;7.95;3.25;;;;;;;26.21;35.34;100130.19;1734398;83;21059;-75
2023/05/23 08:13:47;;;;;;;4.35;2.35;;;;;;;26.47;35.02;100124.13;1734393;82;21054;-73
2023/05/23 08:16:35;;;;;;;3.75;2.25;;;;;;;26.74;33.69;100122.77;1736548;81;21079;-73
2023/05/23 08:19:06;;;;;;;4.35;2.45;;;;;;;27.14;33.38;100116.06;1739476;82;21039;-73
2023/05/23 08:21:35;;;;;;;8.43;2.72;;;;;;;27.14;33.38;100116.06;1739496;81;21113;-74
2023/05/23 08:24:05;;;;;;;7.50;2.58;;;;;;;27.26;33.00;100119.16;1739455;82;21459;-70
2023/05/23 08:26:36;;;;;;;6.85;2.80;;;;;;;27.31;32.92;100119.08;1718590;82;21126;-71
2023/05/23 08:29:08;;;;;;;5.95;2.42;;;;;;;27.45;32.66;100112.84;1728263;81;21016;-72
2023/05/23 08:31:37;;;;;;;4.67;2.45;;;;;;;27.50;32.30;100112.46;1704286;83;21515;-73
2023/05/23 08:34:06;;;;;;;5.15;2.72;;;;;;;27.34;32.52;100115.63;1704448;84;21036;-72
2023/05/23 08:36:39;;;;;;;4.78;2.30;;;;;;;27.30;32.73;100106.70;1704702;83;21075;-71
2023/05/23 08:39:10;;;;;;;8.88;2.80;;;;;;;27.26;32.69;100106.50;1704497;83;21074;-71
2023/05/23 08:41:49;;;;;;;5.60;2.55;;;;;;;27.28;32.68;100106.19;1704101;83;21108;-72
2023/05/23 08:44:18;;;;;;;5.15;2.60;;;;;;;27.33;32.43;100108.91;1704426;83;21908;-73
2023/05/23 08:46:48;;;;;;;8.48;3.05;;;;;;;27.26;32.54;100097.23;1704464;83;21071;-71
2023/05/23 08:49:22;;;;;;;9.20;2.37;;;;;;;27.21;32.91;100100.99;1702162;83;21541;-73
2023/05/23 08:51:51;;;;;;;5.33;2.70;;;;;;;27.27;32.54;100092.69;1704618;83;21028;-73
2023/05/23 08:54:21;;;;;;;5.47;2.52;;;;;;;27.35;32.28;100089.16;1684862;84;21472;-73
2023/05/23 08:56:51;;;;;;;5.30;2.40;;;;;;;27.28;32.47;100084.52;1709518;84;21063;-71
2023/05/23 08:59:20;;;;;;;6.92;2.40;;;;;;;27.28;32.58;100087.33;1709497;84;21087;-73
2023/05/23 09:01:49;;;;;;;4.22;2.27;;;;;;;27.39;32.08;100085.97;1709363;82;21070;-71
2023/05/23 09:04:18;;;;;;;6.20;2.95;;;;;;;27.45;32.21;100083.30;1736400;82;21082;-72
2023/05/23 09:06:52;;;;;;;4.60;2.55;;;;;;;27.38;32.21;100083.47;1744523;82;21054;-78
2023/05/23 09:09:21;;;;;;;11.88;2.90;;;;;;;27.21;32.50;100077.08;1744747;81;21141;-70
2023/05/23 09:11:51;;;;;;;4.08;2.60;;;;;;;27.10;32.67;100079.86;1713593;82;21094;-70
2023/05/23 09:14:21;;;;;;;5.70;2.90;;;;;;;27.04;32.61;100078.31;1744703;82;21079;-71
2023/05/23 09:16:50;;;;;;;5.35;2.45;;;;;;;27.02;32.88;100073.01;1744528;81;21488;-72
2023/05/23 09:19:22;;;;;;;5.55;2.40;;;;;;;26.91;32.94;100079.97;1744497;81;21737;-73
2023/05/23 09:21:53;;;;;;;6.80;3.35;;;;;;;26.70;33.03;100066.92;1745273;81;21035;-75
2023/05/23 09:24:26;;;;;;;7.20;3.00;;;;;;;26.59;33.53;100068.25;1714212;82;21031;-71
2023/05/23 09:26:55;;;;;;;5.17;2.50;;;;;;;26.49;33.77;100074.07;1714082;82;21070;-72
2023/05/23 09:29:24;;;;;;;6.08;2.50;;;;;;;26.44;33.68;100060.13;1744786;82;21066;-73
2023/05/23 09:31:56;;;;;;;4.92;2.70;;;;;;;26.28;33.85;100060.97;1744748;82;21055;-71
2023/05/23 09:34:25;;;;;;;6.37;2.60;;;;;;;26.24;33.99;100059.92;1715146;82;21470;-69
2023/05/23 09:36:54;;;;;;;5.28;2.33;;;;;;;26.25;34.03;100060.75;1745069;82;21529;-71
2023/05/23 09:39:23;;;;;;;7.47;3.05;;;;;;;26.23;34.24;100064.70;1714386;82;21102;-70
2023/05/23 09:41:53;;;;;;;6.42;2.33;;;;;;;26.25;34.14;100060.75;1744746;82;21090;-70
2023/05/23 09:44:25;;;;;;;6.28;3.62;;;;;;;26.18;34.00;100053.56;1744677;82;21072;-72
2023/05/23 09:46:56;;;;;;;5.92;2.70;;;;;;;26.10;34.34;100050.07;1745015;81;21105;-72
2023/05/23 09:49:26;;;;;;;4.60;2.50;;;;;;;26.08;34.15;100049.55;1744826;82;21071;-73
2023/05/23 09:51:58;;;;;;;11.40;3.22;;;;;;;25.95;34.33;100050.32;1744626;82;21121;-69
2023/05/23 09:54:27;;;;;;;6.45;2.50;;;;;;;25.86;34.53;100045.16;1744653;81;21110;-69
2023/05/23 09:56:55;;;;;;;9.60;3.40;;;;;;;25.81;34.73;100034.84;1744780;81;21544;-69
2023/05/23 09:59:24;;;;;;;5.75;2.20;;;;;;;25.76;34.84;100039.72;1744760;81;21493;-70
2023/05/23 10:01:55;;;;;;;3.95;2.33;;;;;;;25.76;34.82;100042.53;1744753;81;21105;-73
2023/05/23 10:04:24;;;;;;;8.13;2.42;;;;;;;25.77;34.77;100045.02;1731821;82;21050;-71
2023/05/23 10:06:58;;;;;;;2.90;2.20;;;;;;;25.75;34.89;100058.53;1718906;83;21046;-71
2023/05/23 10:09:27;;;;;;;5.35;2.50;;;;;;;25.70;34.89;100050.77;1719166;83;21556;-71
2023/05/23 10:12:19;;;;;;;6.58;2.60;;;;;;;25.64;35.01;100050.56;1721877;82;21086;-71
2023/05/23 10:14:52;;;;;;;5.78;2.62;;;;;;;25.57;35.23;100048.15;1744900;82;21093;-70
2023/05/23 10:17:37;;;;;;;4.40;2.62;;;;;;;25.45;35.40;100047.78;1744539;81;21490;-71
2023/05/23 10:20:15;;;;;;;7.60;2.80;;;;;;;25.44;35.62;100040.51;1745622;80;21525;-71
2023/05/23 10:22:44;;;;;;;6.37;2.67;;;;;;;25.43;35.73;100043.88;1744505;82;21047;-71
2023/05/23 10:25:13;;;;;;;7.95;2.95;;;;;;;25.40;35.93;100044.49;1744646;81;21078;-73
2023/05/23 10:27:43;;;;;;;4.50;2.40;;;;;;;25.38;35.96;100039.76;1744633;82;21031;-74
2023/05/23 10:30:12;;;;;;;8.10;3.67;;;;;;;25.29;35.68;100037.34;1744738;81;21118;-71
2023/05/23 10:32:41;;;;;;;8.18;3.58;;;;;;;25.21;35.91;100035.23;1744795;81;21043;-70
2023/05/23 10:35:51;;;;;;;4.75;2.87;;;;;;;25.23;35.84;100036.59;1744760;81;21023;-71
2023/05/23 10:38:56;;;;;;;6.47;2.65;;;;;;;25.29;35.82;100038.75;1744569;81;21036;-71
2023/05/23 10:41:44;;;;;;;4.97;2.67;;;;;;;25.19;35.76;100023.48;1744807;81;21074;-73
2023/05/23 10:44:26;;;;;;;7.33;2.83;;;;;;;25.02;36.03;100030.19;1714280;82;21106;-70
2023/05/23 10:46:57;;;;;;;4.50;2.33;;;;;;;24.92;36.57;100023.56;1744947;81;21020;-71
2023/05/23 10:49:45;;;;;;;4.72;2.58;;;;;;;24.95;36.41;100020.73;1744636;81;21557;-69
2023/05/23 10:52:15;;;;;;;;;;;;;;;24.96;36.41;100019.59;1747661;81;21031;-70
2023/05/23 10:54:53;;;;;;;3.47;2.33;;;;;;;24.94;36.65;100025.50;1744782;82;20162;-70
2023/05/23 10:57:26;;;;;;;5.90;2.77;;;;;;;24.95;36.50;100021.56;1744603;82;21023;-69
2023/05/23 10:59:55;;;;;;;5.37;2.47;;;;;;;24.94;36.21;100018.48;1744754;81;21121;-73
2023/05/23 11:02:26;;;;;;;6.78;2.72;;;;;;;24.84;36.22;100015.83;1744989;81;21137;-71
2023/05/23 11:05:23;;;;;;;6.97;2.77;;;;;;;24.73;36.72;100010.11;1739554;81;21537;-72
2023/05/23 11:08:16;;;;;;;6.05;2.98;;;;;;;24.72;36.99;100011.80;1651098;85;21089;-71
2023/05/23 11:10:52;;;;;;;6.10;2.77;;;;;;;24.84;36.95;100013.59;1660159;85;21136;-72
2023/05/23 11:13:21;;;;;;;5.60;2.35;;;;;;;24.85;36.90;100016.09;1713190;82;21428;-72
2023/05/23 11:15:50;;;;;;;6.58;2.58;;;;;;;24.78;37.03;100014.80;1744666;82;21019;-71
2023/05/23 11:18:25;;;;;;;6.30;3.40;;;;;;;24.74;37.16;100010.94;1744987;82;21074;-71
2023/05/23 11:20:54;;;;;;;4.87;2.47;;;;;;;24.77;37.17;100008.37;1744689;82;21111;-71
2023/05/23 11:23:24;;;;;;;6.20;2.65;;;;;;;24.86;37.20;100012.73;1744619;81;21110;-72
2023/05/23 11:25:55;;;;;;;4.33;2.55;;;;;;;24.87;37.09;100010.19;1697011;82;21094;-69
2023/05/23 11:28:25;;;;;;;4.33;2.58;;;;;;;24.81;37.25;100010.00;1744869;82;21054;-70
2023/05/23 11:30:56;;;;;;;5.00;2.80;;;;;;;24.72;37.60;100016.84;1744827;81;21094;-72
2023/05/23 11:33:26;;;;;;;8.05;2.95;;;;;;;24.68;37.85;100014.91;1714816;82;21052;-70
2023/05/23 11:35:55;;;;;;;7.47;3.20;;;;;;;24.68;37.98;100012.94;1720222;82;21083;-70
2023/05/23 11:38:24;;;;;;;6.20;2.92;;;;;;;24.71;38.03;100005.37;1744847;81;21047;-71
2023/05/23 11:40:52;;;;;;;6.87;2.67;;;;;;;24.71;38.29;100007.30;1744802;81;21122;-70
2023/05/23 11:43:21;;;;;;;5.20;3.50;;;;;;;24.73;38.19;100000.30;1744943;82;21055;-72